createdAt,value
2019-06-01T00:00:20.699Z,58.90
2019-06-01T00:01:24.443Z,58.90
2019-06-01T00:02:27.420Z,59.00
2019-06-01T00:03:30.408Z,59.00
2019-06-01T00:04:33.349Z,59.10
2019-06-01T00:05:36.301Z,59.00
2019-06-01T00:06:39.188Z,58.90
2019-06-01T00:07:42.982Z,58.90
2019-06-01T00:08:47.131Z,58.90
2019-06-01T00:09:50.165Z,58.80
2019-06-01T00:10:53.056Z,58.80
2019-06-01T00:11:55.981Z,59.30
2019-06-01T00:12:58.893Z,58.70
2019-06-01T00:14:01.796Z,58.70
2019-06-01T00:15:05.461Z,58.60
2019-06-01T00:16:08.468Z,58.70
2019-06-01T00:17:11.379Z,58.90
2019-06-01T00:18:14.313Z,59.00
2019-06-01T00:19:17.214Z,59.50
2019-06-01T00:20:20.168Z,59.30
2019-06-01T00:21:23.050Z,59.50
2019-06-01T00:22:25.993Z,59.70
2019-06-01T00:23:30.009Z,59.80
2019-06-01T00:24:32.893Z,59.90
2019-06-01T00:25:35.849Z,60.70
2019-06-01T00:26:38.753Z,60.10
2019-06-01T00:27:42.506Z,60.20
2019-06-01T00:28:45.787Z,60.20
2019-06-01T00:29:49.527Z,60.30
2019-06-01T00:30:52.429Z,60.30
2019-06-01T00:31:55.358Z,60.20
2019-06-01T00:32:59.418Z,60.30
2019-06-01T00:34:02.281Z,60.40
2019-06-01T00:35:06.222Z,60.60
2019-06-01T00:36:09.180Z,60.70
2019-06-01T00:37:12.100Z,60.90
2019-06-01T00:38:15.009Z,60.90
2019-06-01T00:39:17.899Z,61.20
2019-06-01T00:40:20.850Z,61.40
2019-06-01T00:41:23.740Z,61.60
2019-06-01T00:42:26.644Z,61.70
2019-06-01T00:43:29.547Z,61.80
2019-06-01T00:44:32.451Z,61.80
2019-06-01T00:45:35.364Z,61.80
2019-06-01T00:46:38.324Z,61.80
2019-06-01T00:47:42.612Z,61.60
2019-06-01T00:48:45.890Z,61.50
2019-06-01T00:49:48.893Z,61.40
2019-06-01T00:50:53.098Z,61.20
2019-06-01T00:51:56.134Z,62.00
2019-06-01T00:52:59.087Z,61.00
2019-06-01T00:54:02.022Z,61.10
2019-06-01T00:55:06.056Z,61.20
2019-06-01T00:56:09.182Z,61.30
2019-06-01T00:57:12.088Z,61.30
2019-06-01T00:58:16.004Z,61.40
2019-06-01T00:59:18.954Z,61.60
2019-06-01T01:00:21.943Z,61.60
2019-06-01T01:01:24.878Z,61.70
2019-06-01T01:02:28.782Z,61.70
2019-06-01T01:03:31.681Z,61.60
2019-06-01T01:04:34.601Z,61.50
2019-06-01T01:05:37.501Z,61.80
2019-06-01T01:06:40.406Z,61.80
2019-06-01T01:07:44.682Z,62.10
2019-06-01T01:08:48.884Z,61.90
2019-06-01T01:09:52.913Z,61.80
2019-06-01T01:10:55.890Z,61.80
2019-06-01T01:11:58.806Z,61.80
2019-06-01T01:13:10.661Z,61.80
2019-06-01T01:14:13.572Z,61.80
2019-06-01T01:15:16.521Z,61.70
2019-06-01T01:16:19.396Z,61.60
2019-06-01T01:17:22.338Z,61.40
2019-06-01T01:18:25.248Z,61.40
2019-06-01T01:19:28.166Z,61.50
2019-06-01T01:20:31.194Z,61.60
2019-06-01T01:21:34.090Z,61.60
2019-06-01T01:22:36.982Z,61.60
2019-06-01T01:23:39.926Z,61.70
2019-06-01T01:24:42.826Z,61.50
2019-06-01T01:25:46.353Z,61.40
2019-06-01T01:26:50.424Z,61.20
2019-06-01T01:27:53.380Z,61.20
2019-06-01T01:28:56.982Z,61.00
2019-06-01T01:29:59.897Z,60.80
2019-06-01T01:31:13.274Z,60.50
2019-06-01T01:32:07.557Z,60.40
2019-06-01T01:33:10.464Z,60.20
2019-06-01T01:34:13.345Z,60.10
2019-06-01T01:35:16.260Z,60.20
2019-06-01T01:36:19.200Z,60.00
2019-06-01T01:37:22.113Z,60.00
2019-06-01T01:38:25.013Z,60.10
2019-06-01T01:39:27.932Z,59.80
2019-06-01T01:40:30.833Z,59.60
2019-06-01T01:41:33.769Z,59.80
2019-06-01T01:42:36.658Z,59.80
2019-06-01T01:43:39.561Z,60.00
2019-06-01T01:44:42.457Z,60.10
2019-06-01T01:45:45.345Z,60.20
2019-06-01T01:46:48.641Z,60.20
2019-06-01T01:47:52.851Z,60.20
2019-06-01T01:48:56.177Z,60.40
2019-06-01T01:49:59.138Z,60.30
2019-06-01T01:51:02.714Z,60.20
2019-06-01T01:52:05.677Z,60.10
2019-06-01T01:53:08.678Z,60.00
2019-06-01T01:54:11.657Z,60.10
2019-06-01T01:55:14.988Z,60.00
2019-06-01T01:56:17.885Z,60.10
2019-06-01T01:57:20.838Z,60.30
2019-06-01T01:58:24.777Z,60.40
2019-06-01T01:59:27.717Z,60.20
2019-06-01T02:00:36.433Z,60.10
2019-06-01T02:01:39.326Z,60.10
2019-06-01T02:02:42.396Z,60.10
2019-06-01T02:03:45.300Z,59.90
2019-06-01T02:04:48.193Z,59.60
2019-06-01T02:05:51.094Z,59.50
2019-06-01T02:06:54.030Z,59.50
2019-06-01T02:07:59.887Z,59.60
2019-06-01T02:09:04.161Z,59.80
2019-06-01T02:10:09.661Z,59.80
2019-06-01T02:11:12.681Z,59.80
2019-06-01T02:12:15.584Z,59.60
2019-06-01T02:13:18.550Z,59.50
2019-06-01T02:14:21.445Z,59.40
2019-06-01T02:15:24.459Z,59.30
2019-06-01T02:16:27.342Z,59.20
2019-06-01T02:17:32.062Z,59.00
2019-06-01T02:18:34.994Z,58.80
2019-06-01T02:19:37.892Z,58.80
2019-06-01T02:20:40.829Z,59.30
2019-06-01T02:21:43.672Z,58.60
2019-06-01T02:22:46.565Z,58.50
2019-06-01T02:23:49.518Z,58.50
2019-06-01T02:24:53.705Z,58.40
2019-06-01T02:25:56.926Z,58.40
2019-06-01T02:27:01.150Z,58.30
2019-06-01T02:28:05.177Z,58.20
2019-06-01T02:29:08.161Z,58.10
2019-06-01T02:30:14.161Z,57.90
2019-06-01T02:31:17.062Z,57.80
2019-06-01T02:32:19.983Z,57.80
2019-06-01T02:33:22.866Z,57.70
2019-06-01T02:34:25.837Z,57.70
2019-06-01T02:35:28.650Z,57.60
2019-06-01T02:36:31.569Z,57.60
2019-06-01T02:37:34.490Z,57.50
2019-06-01T02:38:37.426Z,57.40
2019-06-01T02:39:40.507Z,57.30
2019-06-01T02:40:43.418Z,57.20
2019-06-01T02:41:46.726Z,57.10
2019-06-01T02:42:50.622Z,57.10
2019-06-01T02:43:54.660Z,56.80
2019-06-01T02:44:59.119Z,56.40
2019-06-01T02:46:02.756Z,55.90
2019-06-01T02:47:06.409Z,55.80
2019-06-01T02:48:09.323Z,56.20
2019-06-01T02:49:12.241Z,56.30
2019-06-01T02:50:16.569Z,56.50
2019-06-01T02:51:19.485Z,56.70
2019-06-01T02:52:22.364Z,57.00
2019-06-01T02:53:25.262Z,57.10
2019-06-01T02:54:28.065Z,57.40
2019-06-01T02:55:31.105Z,57.60
2019-06-01T02:56:33.997Z,57.70
2019-06-01T02:57:37.892Z,57.70
2019-06-01T02:58:40.686Z,57.70
2019-06-01T02:59:43.577Z,57.60
2019-06-01T03:01:30.818Z,57.70
2019-06-01T03:02:34.125Z,57.50
2019-06-01T03:03:37.526Z,57.50
2019-06-01T03:04:41.618Z,57.50
2019-06-01T03:05:45.743Z,57.60
2019-06-01T03:06:49.993Z,57.20
2019-06-01T03:07:53.180Z,57.30
2019-06-01T03:08:59.789Z,57.00
2019-06-01T03:10:05.299Z,56.90
2019-06-01T03:11:10.689Z,56.70
2019-06-01T03:12:17.298Z,56.60
2019-06-01T03:13:22.174Z,56.40
2019-06-01T03:14:27.678Z,56.40
2019-06-01T03:15:32.301Z,56.40
2019-06-01T03:16:40.173Z,56.30
2019-06-01T03:17:46.354Z,56.30
2019-06-01T03:18:51.236Z,56.30
2019-06-01T03:19:56.226Z,56.40
2019-06-01T03:21:01.680Z,56.40
2019-06-01T03:22:05.648Z,56.20
2019-06-01T03:23:10.048Z,56.30
2019-06-01T03:24:13.445Z,56.30
2019-06-01T03:25:16.460Z,56.20
2019-06-01T03:26:22.123Z,56.00
2019-06-01T03:27:28.639Z,55.90
2019-06-01T03:28:35.924Z,55.90
2019-06-01T03:29:41.136Z,55.80
2019-06-01T03:30:45.821Z,55.80
2019-06-01T03:31:48.991Z,55.70
2019-06-01T03:32:51.947Z,55.80
2019-06-01T03:33:54.938Z,55.60
2019-06-01T03:34:57.780Z,55.20
2019-06-01T03:36:00.743Z,55.00
2019-06-01T03:37:04.871Z,54.90
2019-06-01T03:38:09.230Z,55.00
2019-06-01T03:39:13.070Z,55.10
2019-06-01T03:40:23.804Z,55.00
2019-06-01T03:41:20.989Z,55.50
2019-06-01T03:42:23.926Z,54.90
2019-06-01T03:43:26.885Z,54.60
2019-06-01T03:44:29.778Z,54.50
2019-06-01T03:45:32.714Z,54.10
2019-06-01T03:46:35.625Z,53.90
2019-06-01T03:47:38.522Z,53.80
2019-06-01T03:48:41.448Z,53.90
2019-06-01T03:49:44.358Z,53.70
2019-06-01T03:50:48.122Z,53.70
2019-06-01T03:51:50.926Z,53.90
2019-06-01T03:52:53.825Z,53.90
2019-06-01T03:53:57.002Z,54.00
2019-06-01T03:54:59.897Z,54.10
2019-06-01T03:56:03.242Z,54.10
2019-06-01T03:57:07.270Z,53.50
2019-06-01T03:58:11.713Z,53.30
2019-06-01T03:59:14.636Z,53.40
2019-06-01T04:00:17.457Z,53.50
2019-06-01T04:01:20.377Z,53.40
2019-06-01T04:02:32.893Z,53.30
2019-06-01T04:03:27.973Z,53.40
2019-06-01T04:04:30.897Z,53.40
2019-06-01T04:05:33.808Z,53.60
2019-06-01T04:06:36.744Z,53.60
2019-06-01T04:07:42.705Z,53.70
2019-06-01T04:08:45.612Z,53.50
2019-06-01T04:09:48.562Z,53.30
2019-06-01T04:10:51.454Z,53.20
2019-06-01T04:11:54.369Z,53.10
2019-06-01T04:12:57.269Z,53.30
2019-06-01T04:14:01.422Z,53.40
2019-06-01T04:15:10.235Z,53.60
2019-06-01T04:16:10.017Z,53.60
2019-06-01T04:17:12.927Z,53.60
2019-06-01T04:18:15.869Z,53.60
2019-06-01T04:19:25.030Z,53.70
2019-06-01T04:20:27.972Z,53.50
2019-06-01T04:21:30.912Z,53.20
2019-06-01T04:22:33.820Z,53.20
2019-06-01T04:23:36.756Z,53.10
2019-06-01T04:24:39.659Z,52.20
2019-06-01T04:25:42.593Z,51.90
2019-06-01T04:26:45.489Z,51.60
2019-06-01T04:27:48.455Z,51.80
2019-06-01T04:28:51.358Z,51.80
2019-06-01T04:29:54.273Z,51.60
2019-06-01T04:30:57.220Z,51.60
2019-06-01T04:32:00.122Z,51.40
2019-06-01T04:33:03.040Z,51.10
2019-06-01T04:34:06.781Z,51.00
2019-06-01T04:35:10.983Z,51.30
2019-06-01T04:36:13.981Z,51.10
2019-06-01T04:37:16.885Z,51.40
2019-06-01T04:38:19.797Z,51.50
2019-06-01T04:39:22.696Z,51.10
2019-06-01T04:40:25.619Z,51.00
2019-06-01T04:41:28.530Z,51.00
2019-06-01T04:42:31.418Z,51.00
2019-06-01T04:43:34.309Z,50.70
2019-06-01T04:44:37.249Z,51.30
2019-06-01T04:45:40.250Z,50.90
2019-06-01T04:46:43.060Z,51.00
2019-06-01T04:47:45.983Z,51.10
2019-06-01T04:48:48.877Z,51.00
2019-06-01T04:49:51.765Z,51.20
2019-06-01T04:50:55.702Z,51.30
2019-06-01T04:51:59.798Z,51.30
2019-06-01T04:53:02.722Z,51.60
2019-06-01T04:54:06.735Z,51.60
2019-06-01T04:55:10.806Z,51.50
2019-06-01T04:56:15.172Z,51.30
2019-06-01T04:57:18.169Z,51.20
2019-06-01T04:58:21.424Z,51.20
2019-06-01T04:59:24.338Z,51.10
2019-06-01T05:00:28.003Z,51.20
2019-06-01T05:01:31.161Z,51.50
2019-06-01T05:02:34.105Z,51.60
2019-06-01T05:03:37.126Z,51.90
2019-06-01T05:04:43.411Z,52.10
2019-06-01T05:05:44.876Z,52.10
2019-06-01T05:06:47.798Z,52.00
2019-06-01T05:07:50.709Z,51.90
2019-06-01T05:08:53.598Z,51.80
2019-06-01T05:09:56.599Z,51.90
2019-06-01T05:10:59.557Z,52.00
2019-06-01T05:12:02.558Z,52.30
2019-06-01T05:13:05.455Z,52.40
2019-06-01T05:14:09.594Z,52.40
2019-06-01T05:15:13.980Z,52.20
2019-06-01T05:16:16.865Z,52.10
2019-06-01T05:17:19.804Z,52.10
2019-06-01T05:18:22.710Z,52.10
2019-06-01T05:19:25.613Z,51.90
2019-06-01T05:20:28.511Z,51.90
2019-06-01T05:21:31.474Z,52.00
2019-06-01T05:22:34.416Z,51.50
2019-06-01T05:23:37.435Z,51.20
2019-06-01T05:24:40.332Z,51.00
2019-06-01T05:25:43.257Z,51.20
2019-06-01T05:26:46.193Z,51.20
2019-06-01T05:27:49.171Z,51.20
2019-06-01T05:28:52.063Z,51.10
2019-06-01T05:29:54.968Z,50.70
2019-06-01T05:30:57.966Z,50.50
2019-06-01T05:32:00.877Z,50.50
2019-06-01T05:33:03.833Z,50.40
2019-06-01T05:34:07.715Z,50.60
2019-06-01T05:35:11.803Z,50.40
2019-06-01T05:36:14.681Z,50.10
2019-06-01T05:37:18.704Z,50.30
2019-06-01T05:38:21.662Z,50.30
2019-06-01T05:39:24.592Z,50.30
2019-06-01T05:40:27.521Z,50.20
2019-06-01T05:41:30.443Z,50.40
2019-06-01T05:42:33.327Z,50.00
2019-06-01T05:43:36.357Z,49.70
2019-06-01T05:44:39.245Z,50.00
2019-06-01T05:45:42.160Z,50.30
2019-06-01T05:46:45.065Z,50.00
2019-06-01T05:47:47.982Z,49.90
2019-06-01T05:48:51.177Z,50.00
2019-06-01T05:49:54.083Z,50.00
2019-06-01T05:50:56.896Z,50.00
2019-06-01T05:51:59.716Z,50.00
2019-06-01T05:53:02.652Z,50.00
2019-06-01T05:54:05.587Z,50.10
2019-06-01T05:55:08.697Z,50.20
2019-06-01T05:56:12.693Z,50.00
2019-06-01T05:57:16.721Z,49.90
2019-06-01T05:58:20.316Z,49.90
2019-06-01T05:59:24.541Z,49.90
2019-06-01T06:00:38.789Z,49.80
2019-06-01T06:01:41.714Z,49.30
2019-06-01T06:02:44.617Z,49.10
2019-06-01T06:03:47.505Z,48.90
2019-06-01T06:04:50.446Z,48.70
2019-06-01T06:05:53.287Z,48.90
2019-06-01T06:06:56.193Z,49.30
2019-06-01T06:07:59.126Z,49.50
2019-06-01T06:09:02.024Z,49.70
2019-06-01T06:10:07.403Z,48.70
2019-06-01T06:11:10.815Z,48.40
2019-06-01T06:12:15.298Z,48.00
2019-06-01T06:13:19.392Z,47.90
2019-06-01T06:14:22.679Z,47.90
2019-06-01T06:15:25.606Z,47.70
2019-06-01T06:16:28.499Z,47.80
2019-06-01T06:17:31.460Z,48.30
2019-06-01T06:18:34.346Z,47.70
2019-06-01T06:19:37.261Z,47.50
2019-06-01T06:20:40.185Z,47.40
2019-06-01T06:21:43.085Z,46.90
2019-06-01T06:22:46.029Z,46.90
2019-06-01T06:23:49.928Z,47.10
2019-06-01T06:24:52.900Z,47.10
2019-06-01T06:25:55.811Z,47.00
2019-06-01T06:26:58.724Z,46.70
2019-06-01T06:28:01.651Z,46.40
2019-06-01T06:29:04.606Z,46.40
2019-06-01T06:30:07.654Z,45.80
2019-06-01T06:31:10.537Z,45.80
2019-06-01T06:32:13.461Z,46.30
2019-06-01T06:33:17.354Z,45.70
2019-06-01T06:34:21.494Z,45.30
2019-06-01T06:35:24.438Z,45.70
2019-06-01T06:36:27.334Z,45.50
2019-06-01T06:37:30.229Z,45.20
2019-06-01T06:38:33.167Z,45.00
2019-06-01T06:39:36.047Z,44.70
2019-06-01T06:40:38.946Z,44.80
2019-06-01T06:41:41.852Z,45.00
2019-06-01T06:42:44.754Z,45.20
2019-06-01T06:43:47.680Z,45.20
2019-06-01T06:44:50.650Z,45.30
2019-06-01T06:45:53.550Z,44.90
2019-06-01T06:46:57.498Z,44.60
2019-06-01T06:48:00.432Z,45.10
2019-06-01T06:49:03.408Z,44.90
2019-06-01T06:50:06.415Z,44.80
2019-06-01T06:51:09.314Z,44.70
2019-06-01T06:52:12.223Z,44.30
2019-06-01T06:53:25.325Z,44.70
2019-06-01T06:54:19.983Z,44.40
2019-06-01T06:55:23.947Z,43.50
2019-06-01T06:56:26.979Z,43.40
2019-06-01T06:57:29.903Z,43.60
2019-06-01T06:58:32.918Z,43.70
2019-06-01T06:59:35.885Z,43.70
2019-06-01T07:00:38.857Z,43.70
2019-06-01T07:01:41.769Z,43.90
2019-06-01T07:02:44.672Z,43.80
2019-06-01T07:03:48.575Z,43.70
2019-06-01T07:04:51.504Z,43.50
2019-06-01T07:05:54.434Z,43.40
2019-06-01T07:06:57.325Z,43.30
2019-06-01T07:08:00.308Z,43.40
2019-06-01T07:09:05.247Z,43.10
2019-06-01T07:10:09.006Z,42.90
2019-06-01T07:11:12.177Z,42.20
2019-06-01T07:12:15.176Z,42.20
2019-06-01T07:13:19.337Z,42.50
2019-06-01T07:14:23.372Z,42.70
2019-06-01T07:15:27.541Z,42.80
2019-06-01T07:16:31.735Z,42.70
2019-06-01T07:17:34.791Z,42.30
2019-06-01T07:18:37.738Z,42.30
2019-06-01T07:19:40.647Z,42.40
2019-06-01T07:20:43.599Z,42.40
2019-06-01T07:21:46.416Z,42.10
2019-06-01T07:22:50.393Z,42.40
2019-06-01T07:23:53.289Z,41.90
2019-06-01T07:24:56.197Z,41.90
2019-06-01T07:25:59.545Z,41.90
2019-06-01T07:27:02.503Z,41.60
2019-06-01T07:28:05.411Z,41.50
2019-06-01T07:29:08.346Z,41.50
2019-06-01T07:30:11.336Z,41.80
2019-06-01T07:31:14.386Z,42.00
2019-06-01T07:32:17.322Z,42.00
2019-06-01T07:33:20.509Z,41.40
2019-06-01T07:34:35.876Z,41.30
2019-06-01T07:35:31.133Z,42.00
2019-06-01T07:36:34.082Z,41.70
2019-06-01T07:37:36.993Z,41.70
2019-06-01T07:38:39.889Z,42.10
2019-06-01T07:39:42.850Z,41.20
2019-06-01T07:40:45.663Z,41.20
2019-06-01T07:41:48.640Z,41.40
2019-06-01T07:42:51.539Z,40.90
2019-06-01T07:43:54.458Z,40.90
2019-06-01T07:44:57.348Z,41.00
2019-06-01T07:46:00.250Z,41.10
2019-06-01T07:47:03.185Z,41.40
2019-06-01T07:48:06.110Z,41.40
2019-06-01T07:49:09.025Z,41.40
2019-06-01T07:50:12.169Z,41.60
2019-06-01T07:51:15.077Z,41.40
2019-06-01T07:52:18.108Z,41.40
2019-06-01T07:53:21.038Z,41.30
2019-06-01T07:54:24.855Z,41.60
2019-06-01T07:55:27.808Z,41.80
2019-06-01T07:56:30.797Z,41.70
2019-06-01T07:57:33.728Z,41.60
2019-06-01T07:58:36.624Z,41.80
2019-06-01T07:59:39.555Z,41.70
2019-06-01T08:00:42.471Z,41.70
2019-06-01T08:01:45.498Z,42.00
2019-06-01T08:02:48.349Z,42.00
2019-06-01T08:03:51.242Z,41.60
2019-06-01T08:04:54.847Z,41.60
2019-06-01T08:05:57.933Z,41.60
2019-06-01T08:07:00.964Z,41.40
2019-06-01T08:08:04.133Z,41.30
2019-06-01T08:09:07.205Z,41.70
2019-06-01T08:10:10.298Z,42.00
2019-06-01T08:11:13.218Z,41.80
2019-06-01T08:12:17.118Z,41.80
2019-06-01T08:13:21.368Z,42.00
2019-06-01T08:14:24.534Z,41.90
2019-06-01T08:15:28.233Z,41.70
2019-06-01T08:16:32.008Z,41.80
2019-06-01T08:17:35.022Z,41.70
2019-06-01T08:18:38.132Z,41.70
2019-06-01T08:19:40.958Z,42.00
2019-06-01T08:20:43.865Z,41.90
2019-06-01T08:21:47.130Z,41.80
2019-06-01T08:22:50.053Z,41.90
2019-06-01T08:23:53.014Z,41.70
2019-06-01T08:24:56.186Z,41.50
2019-06-01T08:25:59.122Z,41.40
2019-06-01T08:27:02.242Z,41.20
2019-06-01T08:28:05.148Z,41.40
2019-06-01T08:29:08.082Z,41.60
2019-06-01T08:30:11.299Z,41.50
2019-06-01T08:31:14.226Z,41.40
2019-06-01T08:32:17.302Z,41.60
2019-06-01T08:33:20.193Z,41.60
2019-06-01T08:34:23.158Z,41.70
2019-06-01T08:35:26.952Z,41.70
2019-06-01T08:36:31.534Z,41.70
2019-06-01T08:37:34.494Z,41.60
2019-06-01T08:38:37.419Z,41.70
2019-06-01T08:39:41.532Z,41.80
2019-06-01T08:40:44.527Z,42.00
2019-06-01T08:41:47.446Z,41.60
2019-06-01T08:42:50.384Z,41.80
2019-06-01T08:43:54.321Z,41.60
2019-06-01T08:44:57.265Z,41.60
2019-06-01T08:46:00.274Z,41.60
2019-06-01T08:47:03.224Z,41.60
2019-06-01T08:48:06.165Z,41.80
2019-06-01T08:49:09.384Z,41.80
2019-06-01T08:50:14.122Z,42.00
2019-06-01T08:51:17.066Z,42.20
2019-06-01T08:52:19.945Z,42.00
2019-06-01T08:53:23.813Z,42.00
2019-06-01T08:54:28.006Z,42.10
2019-06-01T08:55:32.231Z,42.00
2019-06-01T08:56:35.249Z,42.20
2019-06-01T08:57:38.169Z,42.00
2019-06-01T08:58:41.097Z,42.00
2019-06-01T08:59:44.005Z,42.30
2019-06-01T09:00:49.759Z,42.00
2019-06-01T09:01:52.704Z,41.70
2019-06-01T09:02:55.702Z,42.00
2019-06-01T09:03:58.670Z,41.80
2019-06-01T09:05:01.569Z,41.50
2019-06-01T09:06:04.685Z,41.30
2019-06-01T09:07:08.602Z,41.70
2019-06-01T09:08:11.531Z,41.80
2019-06-01T09:09:14.451Z,41.60
2019-06-01T09:10:17.461Z,41.50
2019-06-01T09:11:20.405Z,41.40
2019-06-01T09:12:23.330Z,41.50
2019-06-01T09:13:27.183Z,41.80
2019-06-01T09:14:31.254Z,42.00
2019-06-01T09:15:35.443Z,41.60
2019-06-01T09:16:38.522Z,41.50
2019-06-01T09:17:41.470Z,41.80
2019-06-01T09:18:44.419Z,42.10
2019-06-01T09:19:47.346Z,42.10
2019-06-01T09:20:50.281Z,42.30
2019-06-01T09:21:53.209Z,41.90
2019-06-01T09:22:56.135Z,41.80
2019-06-01T09:23:59.080Z,41.50
2019-06-01T09:25:02.102Z,41.60
2019-06-01T09:26:05.997Z,41.50
2019-06-01T09:27:08.957Z,41.50
2019-06-01T09:28:12.031Z,41.30
2019-06-01T09:29:15.929Z,41.10
2019-06-01T09:30:18.949Z,41.40
2019-06-01T09:31:21.853Z,41.40
2019-06-01T09:32:25.991Z,41.40
2019-06-01T09:33:30.132Z,41.60
2019-06-01T09:34:34.398Z,41.60
2019-06-01T09:35:53.723Z,41.20
2019-06-01T09:36:42.273Z,41.10
2019-06-01T09:37:48.215Z,41.20
2019-06-01T09:38:51.105Z,40.90
2019-06-01T09:39:54.021Z,40.80
2019-06-01T09:40:57.048Z,41.00
2019-06-01T09:41:59.954Z,41.10
2019-06-01T09:43:02.955Z,41.00
2019-06-01T09:44:06.012Z,40.60
2019-06-01T09:45:09.413Z,40.40
2019-06-01T09:46:12.369Z,39.50
2019-06-01T09:47:15.328Z,40.10
2019-06-01T09:48:18.212Z,42.30
2019-06-01T09:49:21.469Z,42.40
2019-06-01T09:50:24.437Z,42.90
2019-06-01T09:51:27.435Z,44.20
2019-06-01T09:52:31.359Z,47.10
2019-06-01T09:53:34.555Z,49.60
2019-06-01T09:54:38.619Z,48.20
2019-06-01T09:55:41.614Z,47.40
2019-06-01T09:56:44.587Z,47.20
2019-06-01T09:57:47.493Z,47.20
2019-06-01T09:58:50.425Z,46.30
2019-06-01T09:59:53.373Z,46.70
2019-06-01T10:00:56.302Z,46.80
2019-06-01T10:01:59.319Z,47.10
2019-06-01T10:03:02.337Z,46.70
2019-06-01T10:04:06.599Z,47.30
2019-06-01T10:05:09.617Z,47.70
2019-06-01T10:06:14.109Z,47.80
2019-06-01T10:07:17.330Z,48.40
2019-06-01T10:08:20.254Z,49.60
2019-06-01T10:09:23.197Z,51.90
2019-06-01T10:10:26.174Z,50.90
2019-06-01T10:11:29.914Z,47.60
2019-06-01T10:12:33.926Z,47.00
2019-06-01T10:13:38.250Z,47.30
2019-06-01T10:14:42.468Z,47.80
2019-06-01T10:15:45.720Z,47.60
2019-06-01T10:16:48.642Z,47.80
2019-06-01T10:17:51.727Z,47.50
2019-06-01T10:18:54.729Z,47.00
2019-06-01T10:19:57.643Z,48.20
2019-06-01T10:21:00.620Z,49.10
2019-06-01T10:22:03.556Z,48.20
2019-06-01T10:23:06.494Z,47.70
2019-06-01T10:24:09.433Z,47.50
2019-06-01T10:25:12.467Z,47.00
2019-06-01T10:26:15.425Z,47.90
2019-06-01T10:27:18.388Z,47.40
2019-06-01T10:28:21.479Z,46.50
2019-06-01T10:29:24.430Z,45.40
2019-06-01T10:30:27.426Z,45.40
2019-06-01T10:31:30.518Z,45.20
2019-06-01T10:32:34.215Z,45.90
2019-06-01T10:33:37.445Z,47.20
2019-06-01T10:34:40.386Z,47.10
2019-06-01T10:35:45.910Z,46.40
2019-06-01T10:36:48.893Z,46.60
2019-06-01T10:37:51.728Z,46.30
2019-06-01T10:38:54.653Z,46.60
2019-06-01T10:39:57.488Z,46.70
2019-06-01T10:41:00.399Z,46.40
2019-06-01T10:42:03.412Z,45.30
2019-06-01T10:43:06.385Z,45.20
2019-06-01T10:44:09.301Z,45.10
2019-06-01T10:45:12.716Z,44.60
2019-06-01T10:46:15.612Z,45.60
2019-06-01T10:47:18.537Z,45.90
2019-06-01T10:48:21.536Z,45.80
2019-06-01T10:49:24.467Z,45.70
2019-06-01T10:50:27.406Z,45.60
2019-06-01T10:51:30.341Z,44.50
2019-06-01T10:52:34.471Z,45.50
2019-06-01T10:53:38.197Z,44.90
2019-06-01T10:54:42.371Z,43.80
2019-06-01T10:55:45.769Z,43.10
2019-06-01T10:56:48.669Z,43.50
2019-06-01T10:57:53.232Z,42.90
2019-06-01T10:59:00.302Z,43.10
2019-06-01T11:00:00.976Z,43.10
2019-06-01T11:01:03.937Z,43.90
2019-06-01T11:02:07.221Z,43.90
2019-06-01T11:03:10.145Z,43.80
2019-06-01T11:04:13.105Z,43.90
2019-06-01T11:05:16.202Z,45.10
2019-06-01T11:06:33.902Z,43.90
2019-06-01T11:07:23.729Z,44.90
2019-06-01T11:08:26.647Z,44.70
2019-06-01T11:09:29.678Z,45.00
2019-06-01T11:10:32.766Z,43.60
2019-06-01T11:11:36.854Z,42.70
2019-06-01T11:12:41.034Z,42.80
2019-06-01T11:13:44.024Z,43.30
2019-06-01T11:14:47.104Z,44.10
2019-06-01T11:15:50.009Z,44.60
2019-06-01T11:16:56.446Z,44.30
2019-06-01T11:17:57.672Z,44.00
2019-06-01T11:19:00.574Z,44.70
2019-06-01T11:20:04.368Z,43.70
2019-06-01T11:21:07.297Z,42.90
2019-06-01T11:22:10.241Z,42.10
2019-06-01T11:23:13.138Z,42.10
2019-06-01T11:24:16.066Z,42.20
2019-06-01T11:25:18.992Z,42.20
2019-06-01T11:26:21.957Z,42.20
2019-06-01T11:27:24.870Z,43.10
2019-06-01T11:28:27.782Z,42.20
2019-06-01T11:29:30.752Z,41.20
2019-06-01T11:30:33.668Z,40.80
2019-06-01T11:31:38.186Z,41.70
2019-06-01T11:32:41.873Z,41.20
2019-06-01T11:33:45.911Z,40.80
2019-06-01T11:34:48.813Z,41.10
2019-06-01T11:35:51.818Z,41.10
2019-06-01T11:37:05.078Z,41.30
2019-06-01T11:38:00.430Z,41.40
2019-06-01T11:39:05.353Z,41.20
2019-06-01T11:40:08.254Z,41.30
2019-06-01T11:41:11.211Z,40.90
2019-06-01T11:42:14.119Z,40.70
2019-06-01T11:43:17.056Z,40.50
2019-06-01T11:44:19.996Z,40.30
2019-06-01T11:45:22.975Z,40.70
2019-06-01T11:46:25.900Z,40.40
2019-06-01T11:47:28.857Z,39.80
2019-06-01T11:48:31.794Z,39.20
2019-06-01T11:49:36.612Z,39.30
2019-06-01T11:50:39.492Z,38.30
2019-06-01T11:51:43.345Z,37.80
2019-06-01T11:52:46.360Z,37.40
2019-06-01T11:53:49.266Z,37.70
2019-06-01T11:54:52.214Z,37.40
2019-06-01T11:55:56.070Z,35.80
2019-06-01T11:56:59.045Z,34.80
2019-06-01T11:58:02.055Z,33.70
2019-06-01T11:59:05.203Z,33.90
2019-06-01T12:00:09.395Z,33.70
2019-06-01T12:01:12.373Z,33.60
2019-06-01T12:02:15.306Z,33.90
2019-06-01T12:03:18.247Z,34.00
2019-06-01T12:04:21.122Z,33.80
2019-06-01T12:05:24.069Z,34.10
2019-06-01T12:06:27.119Z,34.00
2019-06-01T12:07:30.086Z,34.00
2019-06-01T12:08:37.873Z,34.00
2019-06-01T12:09:41.860Z,33.70
2019-06-01T12:10:45.323Z,33.10
2019-06-01T12:11:48.356Z,33.00
2019-06-01T12:12:51.298Z,33.10
2019-06-01T12:13:54.229Z,33.40
2019-06-01T12:14:57.147Z,32.90
2019-06-01T12:16:00.049Z,32.60
2019-06-01T12:17:03.026Z,32.40
2019-06-01T12:18:05.930Z,32.10
2019-06-01T12:19:08.849Z,32.20
2019-06-01T12:20:11.956Z,32.40
2019-06-01T12:21:14.870Z,32.20
2019-06-01T12:22:17.814Z,31.80
2019-06-01T12:23:20.716Z,31.50
2019-06-01T12:24:25.746Z,32.30
2019-06-01T12:25:28.426Z,32.10
2019-06-01T12:26:31.354Z,31.40
2019-06-01T12:27:34.284Z,30.80
2019-06-01T12:28:37.582Z,30.80
2019-06-01T12:29:41.492Z,30.30
2019-06-01T12:30:44.429Z,30.30
2019-06-01T12:31:48.202Z,30.60
2019-06-01T12:32:51.177Z,30.70
2019-06-01T12:33:54.153Z,30.70
2019-06-01T12:34:57.074Z,30.30
2019-06-01T12:35:59.974Z,30.00
2019-06-01T12:37:02.972Z,30.10
2019-06-01T12:38:07.134Z,30.70
2019-06-01T12:39:10.170Z,30.00
2019-06-01T12:40:13.703Z,29.90
2019-06-01T12:41:16.655Z,29.80
2019-06-01T12:42:19.575Z,30.10
2019-06-01T12:43:22.558Z,29.90
2019-06-01T12:44:25.654Z,29.20
2019-06-01T12:45:29.570Z,29.30
2019-06-01T12:46:32.481Z,29.60
2019-06-01T12:47:35.413Z,29.50
2019-06-01T12:48:38.346Z,29.80
2019-06-01T12:49:42.197Z,29.90
2019-06-01T12:50:49.049Z,29.30
2019-06-01T12:51:49.766Z,28.80
2019-06-01T12:52:52.842Z,28.90
2019-06-01T12:53:55.776Z,29.30
2019-06-01T12:54:58.688Z,29.10
2019-06-01T12:56:01.645Z,28.80
2019-06-01T12:57:04.553Z,28.90
2019-06-01T12:58:07.457Z,29.00
2019-06-01T12:59:10.403Z,29.00
2019-06-01T13:00:14.909Z,28.80
2019-06-01T13:01:17.875Z,28.60
2019-06-01T13:02:20.749Z,28.60
2019-06-01T13:03:23.660Z,28.40
2019-06-01T13:04:26.541Z,28.50
2019-06-01T13:05:29.372Z,28.70
2019-06-01T13:06:33.366Z,28.50
2019-06-01T13:07:50.860Z,28.40
2019-06-01T13:08:41.025Z,28.60
2019-06-01T13:09:44.157Z,28.90
2019-06-01T13:10:47.246Z,28.60
2019-06-01T13:11:51.394Z,28.40
2019-06-01T13:12:54.393Z,28.40
2019-06-01T13:13:57.317Z,28.70
2019-06-01T13:15:00.294Z,28.80
2019-06-01T13:16:03.348Z,28.80
2019-06-01T13:17:07.722Z,29.10
2019-06-01T13:18:10.910Z,29.30
2019-06-01T13:19:13.813Z,29.40
2019-06-01T13:20:16.790Z,29.50
2019-06-01T13:21:19.714Z,29.50
2019-06-01T13:22:22.621Z,28.80
2019-06-01T13:23:25.529Z,28.80
2019-06-01T13:24:28.333Z,29.00
2019-06-01T13:25:31.465Z,29.10
2019-06-01T13:26:34.378Z,28.90
2019-06-01T13:27:40.647Z,28.80
2019-06-01T13:28:42.005Z,28.80
2019-06-01T13:29:45.802Z,28.70
2019-06-01T13:30:49.663Z,29.30
2019-06-01T13:31:53.464Z,29.20
2019-06-01T13:32:56.433Z,29.20
2019-06-01T13:33:59.410Z,29.40
2019-06-01T13:35:02.342Z,29.40
2019-06-01T13:36:05.306Z,29.40